Estación meteorológica de Montseny - Vallcàrquera (Vallès Oriental, Parc Natural del Montseny)

Consulta los datos en tiempo real de la estación meteorológica de Montseny - Vallcàrquera





Hora UTC 17:20
Temperatura 15.3 ºC
Humedad 71.3 %
Pluja 0.0 mm
Velocidad viento 2.5 km/h
Dirección viento E
Radiación solar 61.1 W/m²

Datos diarios 2026-05-08



Hora UTC (invierno +1h; verano +2h)
Temperatura (ºC) Humedad (%) Velocidad viento (km/h) Precipitación (mm) Radiación solar (W/m²)
Hora UTC Aire Humedad Vel. Dir. Vel. Max Dir. Intent. máx 5 min. Rad. Sol.
00:05 8.4 85.9 1.1 NNE 1.1 NE 0.0 0.0
00:10 8.3 86.5 1.0 NE 2.8 NE 0.0 0.0
00:15 8.4 86.2 0.4 NE 1.8 NE 0.0 0.0
00:20 8.5 86.9 0.7 NNE 1.8 NNE 0.0 0.0
00:25 8.5 87.9 1.8 NE 2.8 ENE 0.0 0.0
00:30 8.5 88.5 2.3 ENE 3.9 ENE 0.0 0.0
00:35 8.6 88.1 2.4 ENE 3.2 NE 0.0 0.0
00:40 8.7 87.9 0.8 NNE 2.1 ENE 0.0 0.0
00:45 8.8 87.2 0.8 NNE 1.8 NNE 0.0 0.0
00:50 8.9 86.6 1.5 NE 3.2 NE 0.0 0.0
00:55 9.1 85.7 2.7 NE 3.9 ENE 0.0 0.0
01:00 9.2 84.8 1.1 NNE 2.8 NE 0.0 0.0
01:05 9.1 86.3 3.1 ENE 5.6 ENE 0.0 0.0
01:10 9.3 85.3 2.2 NE 4.6 ENE 0.0 0.0
01:15 9.3 85.4 0.9 N 2.1 N 0.0 0.0
01:20 9.2 86.1 0.9 N 2.1 N 0.0 0.0
01:25 9.2 85.7 1.1 NNE 2.1 N 0.0 0.0
01:30 9.2 85.8 0.9 N 2.1 NNW 0.0 0.0
01:35 9.2 85.9 1.2 NNE 2.5 NE 0.0 0.0
01:40 9.2 86.3 0.8 NNE 2.1 NE 0.0 0.0
01:45 9.0 87.9 2.6 ENE 5.3 ENE 0.0 0.0
01:50 8.9 88.3 2.7 NE 4.6 ENE 0.0 0.0
01:55 9.0 87.5 2.6 NE 4.2 ENE 0.0 0.0
02:00 9.0 87.6 2.0 N 3.5 NE 0.0 0.0
02:05 8.9 87.6 0.8 NNE 3.2 NE 0.0 0.0
02:10 8.8 88.4 1.9 NE 3.9 ENE 0.0 0.0
02:15 8.8 88.1 3.1 ENE 5.3 ENE 0.0 0.0
02:20 8.7 88.3 1.0 NE 2.8 NE 0.0 0.0
02:25 8.7 88.5 1.5 NE 3.2 ENE 0.0 0.0
02:30 8.7 87.8 1.7 NE 3.9 ENE 0.0 0.0
02:35 8.6 88.1 1.1 NNE 2.8 ENE 0.0 0.0
02:40 8.5 88.0 1.0 NE 2.8 ENE 0.0 0.0
02:45 8.5 88.2 2.0 NE 4.2 N 0.0 0.0
02:50 8.4 87.6 1.2 NE 3.9 ENE 0.0 0.0
02:55 8.1 88.5 0.9 N 2.8 N 0.0 0.0
03:00 8.0 89.1 1.5 NE 3.2 N 0.0 0.0
03:05 8.0 88.7 1.0 NNE 2.5 N 0.0 0.0
03:10 7.9 89.0 1.6 NE 2.8 NE 0.0 0.0
03:15 7.8 88.4 2.7 NE 4.9 ENE 0.0 0.0
03:20 7.8 87.7 2.4 NE 3.9 ENE 0.0 0.0
03:25 7.7 87.8 1.9 NE 4.2 NE 0.0 0.0
03:30 7.7 87.3 1.6 NE 4.2 NE 0.0 0.0
03:35 7.5 88.9 0.7 NNE 2.1 N 0.0 0.0
03:40 7.4 90.0 1.8 N 2.8 N 0.0 0.0
03:45 7.2 90.5 0.3 NNE 2.1 NE 0.0 0.0
03:50 7.1 91.3 1.4 NNE 2.5 NE 0.0 0.0
03:55 7.3 89.4 2.7 NE 4.9 NE 0.0 0.0
04:00 7.1 89.6 0.9 NNE 2.1 N 0.0 0.0
04:05 7.0 91.3 1.3 NNE 2.5 NE 0.0 0.0
04:10 6.9 91.1 1.8 NNE 4.2 NNE 0.0 0.0
04:15 6.9 90.2 2.0 NE 3.5 ENE 0.0 0.0
04:20 6.7 90.8 2.3 NE 3.9 ENE 0.0 0.0
04:25 6.8 90.5 1.9 NE 3.9 ENE 0.0 0.0
04:30 6.8 89.9 1.4 NE 3.2 NE 0.0 0.0
04:35 6.9 89.4 2.2 NE 4.6 ENE 0.0 0.0
04:40 6.8 89.5 2.5 NE 4.6 ENE 0.0 0.1
04:45 6.6 90.0 3.1 ENE 5.3 ENE 0.0 1.3
04:50 6.6 89.8 2.4 NE 4.9 ENE 0.0 2.9
04:55 6.7 89.6 1.8 NE 3.9 E 0.0 5.4
05:00 6.8 88.6 2.4 NE 4.6 ENE 0.0 9.2
05:05 6.8 88.6 1.2 NE 3.2 ENE 0.0 13.7
05:10 6.8 89.0 1.4 NNE 2.8 N 0.0 17.4
05:15 6.8 89.2 1.2 NNE 2.5 NNE 0.0 18.5
05:20 6.9 89.5 1.3 NNE 2.1 N 0.0 17.7
05:25 6.8 90.1 1.5 NE 3.2 ENE 0.0 19.4
05:30 6.7 90.7 1.8 NE 3.2 NE 0.0 22.2
05:35 6.8 90.7 1.8 NE 3.5 ENE 0.0 26.1
05:40 6.9 89.9 1.6 NNE 3.2 NE 0.0 33.9
05:45 7.0 90.3 0.7 NNE 2.8 ENE 0.0 49.3
05:50 7.2 90.3 2.9 ENE 3.9 ENE 0.0 63.9
05:55 7.4 89.3 3.1 ENE 4.6 ENE 0.0 55.8
06:00 7.6 88.9 2.6 NE 4.6 NE 0.0 59.9
06:05 7.8 88.5 2.7 ENE 4.6 ENE 0.0 55.9
06:10 8.1 86.9 3.1 ENE 4.9 ENE 0.0 148.6
06:15 8.5 84.3 1.9 ENE 4.6 ENE 0.0 68.1
06:20 8.6 85.4 1.9 NE 3.2 NE 0.0 76.9
06:25 8.7 85.9 1.3 ENE 2.5 ENE 0.0 85.9
06:30 8.9 86.3 0.8 ENE 1.8 ENE 0.0 98.5
06:35 9.1 85.2 1.5 ENE 2.8 ENE 0.0 112.7
06:40 9.4 83.4 1.4 ENE 3.2 ENE 0.0 129.4
06:45 9.7 82.4 1.4 E 2.8 ENE 0.0 146.9
06:50 10.2 83.9 0.4 E 1.4 E 0.0 167.5
06:55 10.6 78.0 2.2 E 3.9 E 0.0 203.6
07:00 10.9 74.1 1.7 ENE 2.8 ENE 0.0 230.8
07:05 11.6 70.2 0.8 ENE 2.8 ENE 0.0 372.4
07:10 12.5 70.8 1.0 SW 3.2 SW 0.0 448.7
07:15 12.9 68.9 1.7 ESE 3.5 E 0.0 437.0
07:20 13.6 66.1 1.1 E 2.1 E 0.0 424.4
07:25 14.0 65.1 1.0 S 2.8 SSE 0.0 450.2
07:30 14.6 65.4 0.6 S 2.5 WSW 0.0 465.9
07:35 14.8 62.3 1.7 E 2.8 S 0.0 487.1
07:40 15.0 64.0 0.8 S 2.5 SW 0.0 392.7
07:45 15.1 63.3 0.9 S 3.9 SW 0.0 441.3
07:50 15.5 62.1 0.7 SE 2.5 SSE 0.0 459.6
07:55 15.8 62.8 1.3 SE 2.5 SSE 0.0 500.5
08:00 16.3 59.2 1.3 SSW 3.9 SSW 0.0 514.3
08:05 16.3 58.8 1.2 S 4.9 S 0.0 525.7
08:10 16.5 52.7 1.3 SSW 5.3 SSW 0.0 493.1
08:15 16.6 55.8 1.6 SSW 4.6 SW 0.0 466.9
08:20 16.7 56.2 1.3 S 4.6 S 0.0 493.1
08:25 16.9 53.3 1.8 SSW 4.9 SSW 0.0 479.8
08:30 17.0 52.0 0.8 SSW 3.9 WSW 0.0 480.5
08:35 17.2 53.0 3.6 SW 9.2 SW 0.0 525.5
08:40 16.9 53.8 4.9 SW 12.7 WSW 0.0 517.7
08:45 16.9 55.9 4.5 SSW 10.6 WSW 0.0 569.8
08:50 17.1 55.0 4.3 SW 12.4 WSW 0.0 582.6
08:55 17.2 54.5 4.1 SW 11.3 S 0.0 493.4
09:00 16.7 55.6 5.0 WSW 10.9 SW 0.0 372.0
09:05 16.4 56.6 4.3 WSW 11.6 SW 0.0 357.4
09:10 16.3 55.0 3.6 WSW 11.3 SW 0.0 309.8
09:15 16.2 56.2 3.1 NNE 9.2 N 0.0 313.9
09:20 16.3 56.5 2.2 NNW 6.4 E 0.0 293.5
09:25 16.2 56.7 2.8 WSW 9.9 WSW 0.0 315.5
09:30 16.4 56.4 2.2 WSW 5.6 SSW 0.0 307.2
09:35 16.5 57.2 3.6 WSW 9.2 SW 0.0 319.4
09:40 16.4 56.8 2.1 WSW 6.4 SSW 0.0 316.1
09:45 16.3 58.1 3.1 WNW 11.6 NNW 0.0 350.2
09:50 16.7 59.3 2.5 SSE 7.4 WNW 0.0 385.9
09:55 16.9 61.0 3.0 SE 9.9 SSE 0.0 590.6
10:00 16.8 61.2 3.6 N 9.5 ENE 0.0 469.1
10:05 17.0 62.2 3.2 W 9.2 SW 0.0 492.3
10:10 17.1 61.2 4.1 S 10.2 W 0.0 388.2
10:15 16.7 61.4 2.4 WSW 7.4 WSW 0.0 405.4
10:20 17.2 62.6 2.8 S 7.8 S 0.0 709.9
10:25 18.0 61.0 5.0 SSW 18.0 SW 0.0 675.9
10:30 18.0 58.9 3.0 WSW 9.9 SW 0.0 884.0
10:35 18.5 57.6 2.1 WNW 12.4 WSW 0.0 573.5
10:40 18.3 56.9 3.4 SW 12.0 SSW 0.0 389.0
10:45 17.7 60.3 3.7 WSW 15.2 WSW 0.0 564.1
10:50 18.1 60.1 3.8 SW 8.1 ENE 0.0 532.0
10:55 17.5 62.7 4.0 N 12.0 WSW 0.0 406.1
11:00 17.0 62.9 4.0 ENE 10.9 E 0.0 358.5
11:05 16.8 63.7 2.3 N 8.5 NNE 0.0 333.5
11:10 17.0 61.0 2.5 S 7.8 SSW 0.0 328.8
11:15 17.1 59.6 2.3 SSE 7.4 SSE 0.0 363.0
11:20 17.1 59.1 2.5 E 7.8 ESE 0.0 411.2
11:25 17.2 61.0 2.3 SE 7.1 NNE 0.0 425.1
11:30 17.2 60.4 4.6 ESE 16.6 E 0.0 426.3
11:35 17.0 62.7 3.7 S 9.9 N 0.0 396.1
11:40 16.9 62.7 3.7 NNW 12.7 NNW 0.0 664.2
11:45 17.1 62.4 3.4 SSE 14.5 SSE 0.0 311.9
11:50 17.0 64.0 1.8 SSW 6.4 SSW 0.0 359.0
11:55 17.2 63.2 3.0 S 8.5 SSE 0.0 332.3
12:00 17.1 63.5 2.1 NNW 7.4 WNW 0.0 350.6
12:05 17.1 63.2 4.5 ESE 10.9 E 0.0 364.7
12:10 16.8 64.6 4.5 SW 11.6 SSW 0.0 308.7
12:15 16.7 65.2 2.8 W 10.2 SW 0.0 296.9
12:20 16.6 65.3 3.4 N 15.9 NNW 0.0 220.3
12:25 16.2 65.3 3.6 N 9.5 WNW 0.0 200.6
12:30 16.2 65.3 6.4 W 16.9 WSW 0.0 333.8
12:35 16.5 64.2 3.8 W 12.7 SW 0.0 404.2
12:40 16.5 63.3 4.6 NE 11.3 N 0.0 412.9
12:45 16.9 62.5 5.4 N 16.2 NW 0.0 751.2
12:50 17.5 61.6 2.4 WNW 8.5 NNW 0.0 537.9
12:55 17.8 59.5 3.3 ESE 7.4 ENE 0.0 635.1
13:00 18.4 58.2 2.3 SW 7.4 W 0.0 272.5
13:05 17.5 58.6 4.9 WSW 18.0 WSW 0.0 225.4
13:10 17.0 61.3 3.5 WNW 9.9 SSW 0.0 325.6
13:15 17.4 61.1 3.6 SW 8.5 WNW 0.0 585.6
13:20 17.9 59.4 4.4 SSE 14.1 NE 0.0 562.3
13:25 17.7 59.1 1.8 W 6.0 SSE 0.0 581.3
13:30 17.9 59.2 4.0 SW 14.1 S 0.0 345.8
13:35 17.4 59.5 2.8 SSW 7.8 SW 0.0 246.8
13:40 17.1 61.1 4.6 ENE 12.0 E 0.0 269.5
13:45 16.8 62.3 6.0 ENE 13.8 ENE 0.0 220.4
13:50 16.7 61.9 4.3 ENE 11.6 ENE 0.0 217.4
13:55 17.0 61.5 1.4 SE 4.9 E 0.0 342.5
14:00 17.5 60.6 3.5 NNW 10.6 WNW 0.0 443.0
14:05 17.4 60.3 3.1 W 9.9 N 0.0 357.0
14:10 17.6 60.6 2.4 SSE 5.6 SE 0.0 314.6
14:15 17.6 60.1 1.6 ESE 4.9 SSE 0.0 422.8
14:20 18.2 59.1 3.0 S 8.8 WSW 0.0 505.5
14:25 18.8 57.6 4.1 SSE 10.6 E 0.0 714.7
14:30 18.5 56.6 3.4 E 9.9 ENE 0.0 407.2
14:35 18.4 58.3 2.5 SSW 8.1 SW 0.0 289.9
14:40 18.1 58.1 4.3 SW 9.9 SSW 0.0 267.2
14:45 17.7 58.8 2.6 SE 9.9 W 0.0 300.5
14:50 17.7 60.8 3.7 SW 9.9 W 0.0 336.2
14:55 17.9 60.7 4.1 SW 16.6 SW 0.0 425.4
15:00 18.4 60.8 4.4 SSW 10.6 SSW 0.0 756.9
15:05 19.0 57.7 5.5 SSW 12.4 SSW 0.0 866.0
15:10 19.2 57.0 4.1 ESE 8.5 ENE 0.0 386.0
15:15 18.8 58.8 3.7 SSW 8.5 WSW 0.0 419.9
15:20 18.8 58.5 4.1 SW 12.4 SW 0.0 277.6
15:25 17.6 62.5 5.9 NW 20.1 N 0.0 255.7
15:30 17.4 64.9 3.8 W 12.0 WSW 0.0 263.8
15:35 17.4 65.2 3.5 WSW 11.3 NNW 0.0 237.8
15:40 17.3 65.8 3.2 WNW 8.1 E 0.0 198.6
15:45 17.0 66.8 3.0 NNE 8.8 NNE 0.0 159.0
15:50 16.8 67.5 3.9 E 10.9 S 0.0 205.6
15:55 16.7 66.5 6.2 S 14.5 W 0.0 382.4
16:00 16.7 66.4 5.4 N 21.2 E 0.0 398.7
16:05 17.0 66.4 3.1 SSE 9.9 S 0.0 325.7
16:10 17.2 65.8 3.4 ESE 9.9 SSW 0.0 260.5
16:15 16.9 67.2 3.8 ESE 8.8 ESE 0.0 264.8
16:20 16.9 67.9 3.9 SSE 7.8 SW 0.0 428.3
16:25 17.2 66.0 2.2 ENE 6.4 ENE 0.0 322.1
16:30 16.9 68.1 3.1 SW 7.1 SSW 0.0 316.9
16:35 17.6 66.7 2.5 S 14.8 S 0.0 423.8
16:40 17.7 64.7 5.0 SW 14.1 SW 0.0 389.0
16:45 17.2 65.2 5.8 SW 13.8 W 0.0 192.8
16:50 16.6 66.7 2.4 SSW 7.1 SSE 0.0 183.8
16:55 16.5 66.9 4.1 E 9.9 WSW 0.0 195.8
17:00 16.2 67.7 4.7 SW 9.5 SSW 0.0 122.7
17:05 15.9 68.8 4.2 SSW 13.4 SW 0.0 122.4
17:10 15.8 69.3 3.2 NE 9.9 E 0.0 110.2
17:15 15.5 70.6 4.2 E 12.0 ENE 0.0 71.3
17:20 15.3 71.3 2.5 E 8.5 E 0.0 61.1
Máxima 19.2 91.3 6.4 W 21.2 E 0.0 884.0
Mínima 6.6 52.0
Total 0.0